sensor_id;sensor_type;location;lat;lon;timestamp;P1;durP1;ratioP1;P2;durP2;ratioP2
14400;SDS011;7285;50.894;5.462;2023-08-20T00:01:59;1.20;;;0.73;;
14400;SDS011;7285;50.894;5.462;2023-08-20T00:04:29;1.17;;;1.17;;
14400;SDS011;7285;50.894;5.462;2023-08-20T00:06:59;0.80;;;0.80;;
14400;SDS011;7285;50.894;5.462;2023-08-20T00:09:26;0.90;;;0.90;;
14400;SDS011;7285;50.894;5.462;2023-08-20T00:11:53;0.70;;;0.70;;
14400;SDS011;7285;50.894;5.462;2023-08-20T00:14:24;0.90;;;0.90;;
14400;SDS011;7285;50.894;5.462;2023-08-20T00:17:18;0.93;;;0.67;;
14400;SDS011;7285;50.894;5.462;2023-08-20T00:19:45;0.90;;;0.90;;
14400;SDS011;7285;50.894;5.462;2023-08-20T00:22:13;0.90;;;0.90;;
14400;SDS011;7285;50.894;5.462;2023-08-20T00:24:41;1.17;;;1.07;;
14400;SDS011;7285;50.894;5.462;2023-08-20T00:27:10;0.77;;;0.70;;
14400;SDS011;7285;50.894;5.462;2023-08-20T00:29:39;0.80;;;0.80;;
14400;SDS011;7285;50.894;5.462;2023-08-20T00:32:06;0.73;;;0.70;;
14400;SDS011;7285;50.894;5.462;2023-08-20T00:34:34;0.60;;;0.60;;
14400;SDS011;7285;50.894;5.462;2023-08-20T00:37:01;0.70;;;0.70;;
14400;SDS011;7285;50.894;5.462;2023-08-20T00:39:28;1.73;;;0.80;;
14400;SDS011;7285;50.894;5.462;2023-08-20T00:41:55;0.70;;;0.70;;
14400;SDS011;7285;50.894;5.462;2023-08-20T00:44:22;0.67;;;0.67;;
14400;SDS011;7285;50.894;5.462;2023-08-20T00:46:51;0.70;;;0.70;;
14400;SDS011;7285;50.894;5.462;2023-08-20T00:49:19;0.67;;;0.67;;
14400;SDS011;7285;50.894;5.462;2023-08-20T00:51:47;0.87;;;0.87;;
14400;SDS011;7285;50.894;5.462;2023-08-20T00:54:14;0.60;;;0.60;;
14400;SDS011;7285;50.894;5.462;2023-08-20T00:56:41;1.10;;;1.10;;
14400;SDS011;7285;50.894;5.462;2023-08-20T00:59:09;1.53;;;1.00;;
14400;SDS011;7285;50.894;5.462;2023-08-20T01:01:36;1.00;;;0.80;;
14400;SDS011;7285;50.894;5.462;2023-08-20T01:04:05;1.53;;;1.27;;
14400;SDS011;7285;50.894;5.462;2023-08-20T01:06:35;0.70;;;0.70;;
14400;SDS011;7285;50.894;5.462;2023-08-20T01:09:14;0.57;;;0.57;;
14400;SDS011;7285;50.894;5.462;2023-08-20T01:11:51;1.07;;;1.07;;
14400;SDS011;7285;50.894;5.462;2023-08-20T01:14:23;1.20;;;0.93;;
14400;SDS011;7285;50.894;5.462;2023-08-20T01:16:50;0.60;;;0.60;;
14400;SDS011;7285;50.894;5.462;2023-08-20T01:19:20;0.90;;;0.90;;
14400;SDS011;7285;50.894;5.462;2023-08-20T01:21:52;1.17;;;1.07;;
14400;SDS011;7285;50.894;5.462;2023-08-20T01:24:38;0.70;;;0.70;;
14400;SDS011;7285;50.894;5.462;2023-08-20T01:27:26;0.90;;;0.77;;
14400;SDS011;7285;50.894;5.462;2023-08-20T01:30:02;0.67;;;0.67;;
14400;SDS011;7285;50.894;5.462;2023-08-20T01:32:30;0.90;;;0.90;;
14400;SDS011;7285;50.894;5.462;2023-08-20T01:34:57;1.53;;;1.17;;
14400;SDS011;7285;50.894;5.462;2023-08-20T01:37:25;1.13;;;1.13;;
14400;SDS011;7285;50.894;5.462;2023-08-20T01:39:52;0.97;;;0.97;;
14400;SDS011;7285;50.894;5.462;2023-08-20T01:42:19;0.50;;;0.50;;
14400;SDS011;7285;50.894;5.462;2023-08-20T01:44:46;1.23;;;0.93;;
14400;SDS011;7285;50.894;5.462;2023-08-20T01:47:14;0.67;;;0.67;;
14400;SDS011;7285;50.894;5.462;2023-08-20T01:49:41;0.67;;;0.67;;
14400;SDS011;7285;50.894;5.462;2023-08-20T01:52:08;1.00;;;0.80;;
14400;SDS011;7285;50.894;5.462;2023-08-20T01:54:35;1.20;;;1.03;;
14400;SDS011;7285;50.894;5.462;2023-08-20T01:57:03;1.13;;;1.03;;
14400;SDS011;7285;50.894;5.462;2023-08-20T01:59:30;0.80;;;0.80;;
14400;SDS011;7285;50.894;5.462;2023-08-20T02:01:57;1.10;;;0.87;;
14400;SDS011;7285;50.894;5.462;2023-08-20T02:04:26;0.57;;;0.57;;
14400;SDS011;7285;50.894;5.462;2023-08-20T02:06:53;0.80;;;0.80;;
14400;SDS011;7285;50.894;5.462;2023-08-20T02:09:20;0.70;;;0.70;;
14400;SDS011;7285;50.894;5.462;2023-08-20T02:11:47;0.60;;;0.60;;
14400;SDS011;7285;50.894;5.462;2023-08-20T02:14:15;0.57;;;0.57;;
14400;SDS011;7285;50.894;5.462;2023-08-20T02:16:42;0.70;;;0.70;;
14400;SDS011;7285;50.894;5.462;2023-08-20T02:19:09;0.87;;;0.70;;
14400;SDS011;7285;50.894;5.462;2023-08-20T02:21:39;0.73;;;0.73;;
14400;SDS011;7285;50.894;5.462;2023-08-20T02:24:07;6.57;;;0.57;;
14400;SDS011;7285;50.894;5.462;2023-08-20T02:26:34;1.20;;;1.10;;
14400;SDS011;7285;50.894;5.462;2023-08-20T02:29:02;0.93;;;0.90;;
14400;SDS011;7285;50.894;5.462;2023-08-20T02:31:30;0.87;;;0.87;;
14400;SDS011;7285;50.894;5.462;2023-08-20T02:33:58;0.50;;;0.50;;
14400;SDS011;7285;50.894;5.462;2023-08-20T02:36:25;1.13;;;1.03;;
14400;SDS011;7285;50.894;5.462;2023-08-20T02:38:54;0.50;;;0.50;;
14400;SDS011;7285;50.894;5.462;2023-08-20T02:41:22;1.03;;;1.03;;
14400;SDS011;7285;50.894;5.462;2023-08-20T02:43:49;1.47;;;1.00;;
14400;SDS011;7285;50.894;5.462;2023-08-20T02:46:16;1.27;;;0.90;;
14400;SDS011;7285;50.894;5.462;2023-08-20T02:48:43;0.80;;;0.80;;
14400;SDS011;7285;50.894;5.462;2023-08-20T02:51:10;1.20;;;0.53;;
14400;SDS011;7285;50.894;5.462;2023-08-20T02:53:37;0.40;;;0.40;;
14400;SDS011;7285;50.894;5.462;2023-08-20T02:56:05;0.50;;;0.50;;
14400;SDS011;7285;50.894;5.462;2023-08-20T02:58:32;0.67;;;0.67;;
14400;SDS011;7285;50.894;5.462;2023-08-20T03:00:59;0.90;;;0.90;;
14400;SDS011;7285;50.894;5.462;2023-08-20T03:03:26;4.53;;;1.17;;
14400;SDS011;7285;50.894;5.462;2023-08-20T03:05:53;0.63;;;0.60;;
14400;SDS011;7285;50.894;5.462;2023-08-20T03:08:21;0.50;;;0.50;;
14400;SDS011;7285;50.894;5.462;2023-08-20T03:10:50;0.47;;;0.47;;
14400;SDS011;7285;50.894;5.462;2023-08-20T03:13:19;0.80;;;0.80;;
14400;SDS011;7285;50.894;5.462;2023-08-20T03:15:45;0.53;;;0.53;;
14400;SDS011;7285;50.894;5.462;2023-08-20T03:18:13;0.47;;;0.47;;
14400;SDS011;7285;50.894;5.462;2023-08-20T03:20:40;0.60;;;0.60;;
14400;SDS011;7285;50.894;5.462;2023-08-20T03:23:07;0.93;;;0.67;;
14400;SDS011;7285;50.894;5.462;2023-08-20T03:25:34;1.03;;;1.03;;
14400;SDS011;7285;50.894;5.462;2023-08-20T03:28:02;0.40;;;0.40;;
14400;SDS011;7285;50.894;5.462;2023-08-20T03:30:34;0.60;;;0.60;;
14400;SDS011;7285;50.894;5.462;2023-08-20T03:33:03;0.90;;;0.70;;
14400;SDS011;7285;50.894;5.462;2023-08-20T03:35:30;0.40;;;0.40;;
14400;SDS011;7285;50.894;5.462;2023-08-20T03:37:57;0.50;;;0.50;;
14400;SDS011;7285;50.894;5.462;2023-08-20T03:40:24;1.20;;;1.17;;
14400;SDS011;7285;50.894;5.462;2023-08-20T03:42:51;0.40;;;0.40;;
14400;SDS011;7285;50.894;5.462;2023-08-20T03:45:18;0.60;;;0.60;;
14400;SDS011;7285;50.894;5.462;2023-08-20T03:50:16;0.40;;;0.40;;
14400;SDS011;7285;50.894;5.462;2023-08-20T03:52:43;0.60;;;0.60;;
14400;SDS011;7285;50.894;5.462;2023-08-20T03:55:10;0.60;;;0.60;;
14400;SDS011;7285;50.894;5.462;2023-08-20T03:57:37;0.50;;;0.50;;
14400;SDS011;7285;50.894;5.462;2023-08-20T04:00:05;0.40;;;0.40;;
14400;SDS011;7285;50.894;5.462;2023-08-20T04:02:35;0.60;;;0.60;;
14400;SDS011;7285;50.894;5.462;2023-08-20T04:05:05;0.50;;;0.50;;
14400;SDS011;7285;50.894;5.462;2023-08-20T04:07:35;0.40;;;0.40;;
14400;SDS011;7285;50.894;5.462;2023-08-20T04:10:02;0.80;;;0.80;;
14400;SDS011;7285;50.894;5.462;2023-08-20T04:12:30;0.70;;;0.70;;
14400;SDS011;7285;50.894;5.462;2023-08-20T04:14:57;0.43;;;0.43;;
14400;SDS011;7285;50.894;5.462;2023-08-20T04:17:24;0.57;;;0.50;;
14400;SDS011;7285;50.894;5.462;2023-08-20T04:19:51;0.63;;;0.63;;
14400;SDS011;7285;50.894;5.462;2023-08-20T04:22:19;0.73;;;0.67;;
14400;SDS011;7285;50.894;5.462;2023-08-20T04:24:47;1.13;;;1.07;;
14400;SDS011;7285;50.894;5.462;2023-08-20T04:27:14;0.80;;;0.80;;
14400;SDS011;7285;50.894;5.462;2023-08-20T04:29:42;0.80;;;0.80;;
14400;SDS011;7285;50.894;5.462;2023-08-20T04:32:09;0.93;;;0.93;;
14400;SDS011;7285;50.894;5.462;2023-08-20T04:34:36;1.30;;;1.30;;
14400;SDS011;7285;50.894;5.462;2023-08-20T04:37:03;1.33;;;1.23;;
14400;SDS011;7285;50.894;5.462;2023-08-20T04:39:31;1.03;;;1.03;;
14400;SDS011;7285;50.894;5.462;2023-08-20T04:41:59;0.90;;;0.80;;
14400;SDS011;7285;50.894;5.462;2023-08-20T04:44:26;3.63;;;0.90;;
14400;SDS011;7285;50.894;5.462;2023-08-20T04:46:55;1.67;;;1.57;;
14400;SDS011;7285;50.894;5.462;2023-08-20T04:49:22;0.93;;;0.93;;
14400;SDS011;7285;50.894;5.462;2023-08-20T04:51:54;1.00;;;1.00;;
14400;SDS011;7285;50.894;5.462;2023-08-20T04:54:21;0.77;;;0.70;;
14400;SDS011;7285;50.894;5.462;2023-08-20T04:56:50;0.93;;;0.90;;
14400;SDS011;7285;50.894;5.462;2023-08-20T04:59:17;2.23;;;0.90;;
14400;SDS011;7285;50.894;5.462;2023-08-20T05:01:44;1.67;;;1.10;;
14400;SDS011;7285;50.894;5.462;2023-08-20T05:04:12;0.80;;;0.80;;
14400;SDS011;7285;50.894;5.462;2023-08-20T05:06:39;0.90;;;0.90;;
14400;SDS011;7285;50.894;5.462;2023-08-20T05:09:07;0.83;;;0.83;;
14400;SDS011;7285;50.894;5.462;2023-08-20T05:11:34;0.77;;;0.77;;
14400;SDS011;7285;50.894;5.462;2023-08-20T05:14:06;1.40;;;1.30;;
14400;SDS011;7285;50.894;5.462;2023-08-20T05:16:33;0.67;;;0.67;;
14400;SDS011;7285;50.894;5.462;2023-08-20T05:19:00;1.33;;;1.10;;
14400;SDS011;7285;50.894;5.462;2023-08-20T05:21:27;0.80;;;0.80;;
14400;SDS011;7285;50.894;5.462;2023-08-20T05:23:54;0.97;;;0.87;;
14400;SDS011;7285;50.894;5.462;2023-08-20T05:26:22;0.73;;;0.73;;
14400;SDS011;7285;50.894;5.462;2023-08-20T05:28:49;1.37;;;1.27;;
14400;SDS011;7285;50.894;5.462;2023-08-20T05:31:18;9.97;;;1.20;;
14400;SDS011;7285;50.894;5.462;2023-08-20T05:33:45;0.80;;;0.80;;
14400;SDS011;7285;50.894;5.462;2023-08-20T05:36:13;1.67;;;0.60;;
14400;SDS011;7285;50.894;5.462;2023-08-20T05:38:40;0.67;;;0.67;;
14400;SDS011;7285;50.894;5.462;2023-08-20T05:41:09;0.73;;;0.73;;
14400;SDS011;7285;50.894;5.462;2023-08-20T05:43:36;0.97;;;0.87;;
14400;SDS011;7285;50.894;5.462;2023-08-20T05:46:03;0.97;;;0.97;;
14400;SDS011;7285;50.894;5.462;2023-08-20T05:48:31;2.53;;;0.90;;
14400;SDS011;7285;50.894;5.462;2023-08-20T05:50:58;1.07;;;0.90;;
14400;SDS011;7285;50.894;5.462;2023-08-20T05:53:25;1.17;;;1.07;;
14400;SDS011;7285;50.894;5.462;2023-08-20T05:55:52;2.83;;;1.10;;
14400;SDS011;7285;50.894;5.462;2023-08-20T05:58:19;1.00;;;0.90;;
14400;SDS011;7285;50.894;5.462;2023-08-20T06:00:46;1.63;;;1.53;;
14400;SDS011;7285;50.894;5.462;2023-08-20T06:03:13;1.17;;;1.10;;
14400;SDS011;7285;50.894;5.462;2023-08-20T06:05:42;0.93;;;0.93;;
14400;SDS011;7285;50.894;5.462;2023-08-20T06:08:09;1.50;;;1.40;;
14400;SDS011;7285;50.894;5.462;2023-08-20T06:10:37;1.00;;;0.70;;
14400;SDS011;7285;50.894;5.462;2023-08-20T06:13:04;1.40;;;1.00;;
14400;SDS011;7285;50.894;5.462;2023-08-20T06:15:31;0.70;;;0.70;;
14400;SDS011;7285;50.894;5.462;2023-08-20T06:17:58;1.10;;;1.00;;
14400;SDS011;7285;50.894;5.462;2023-08-20T06:20:26;1.00;;;1.00;;
14400;SDS011;7285;50.894;5.462;2023-08-20T06:22:54;1.30;;;0.93;;
14400;SDS011;7285;50.894;5.462;2023-08-20T06:25:21;0.63;;;0.63;;
14400;SDS011;7285;50.894;5.462;2023-08-20T06:27:48;1.47;;;1.37;;
14400;SDS011;7285;50.894;5.462;2023-08-20T06:30:15;1.03;;;1.03;;
14400;SDS011;7285;50.894;5.462;2023-08-20T06:32:43;5.13;;;1.17;;
14400;SDS011;7285;50.894;5.462;2023-08-20T06:35:11;0.90;;;0.90;;
14400;SDS011;7285;50.894;5.462;2023-08-20T06:37:38;3.60;;;1.00;;
14400;SDS011;7285;50.894;5.462;2023-08-20T06:40:07;1.40;;;0.90;;
14400;SDS011;7285;50.894;5.462;2023-08-20T06:42:35;0.70;;;0.70;;
14400;SDS011;7285;50.894;5.462;2023-08-20T06:45:02;7.63;;;1.10;;
14400;SDS011;7285;50.894;5.462;2023-08-20T06:47:29;1.33;;;1.23;;
14400;SDS011;7285;50.894;5.462;2023-08-20T06:49:56;0.77;;;0.70;;
14400;SDS011;7285;50.894;5.462;2023-08-20T06:52:23;0.73;;;0.73;;
14400;SDS011;7285;50.894;5.462;2023-08-20T06:54:50;1.10;;;1.00;;
14400;SDS011;7285;50.894;5.462;2023-08-20T06:57:19;1.17;;;1.07;;
14400;SDS011;7285;50.894;5.462;2023-08-20T06:59:45;0.90;;;0.90;;
14400;SDS011;7285;50.894;5.462;2023-08-20T07:02:12;1.00;;;1.00;;
14400;SDS011;7285;50.894;5.462;2023-08-20T07:04:39;2.87;;;1.10;;
14400;SDS011;7285;50.894;5.462;2023-08-20T07:07:06;1.00;;;1.00;;
14400;SDS011;7285;50.894;5.462;2023-08-20T07:09:34;7.00;;;1.37;;
14400;SDS011;7285;50.894;5.462;2023-08-20T07:12:03;1.17;;;1.17;;
14400;SDS011;7285;50.894;5.462;2023-08-20T07:14:33;0.70;;;0.67;;
14400;SDS011;7285;50.894;5.462;2023-08-20T07:17:00;1.43;;;1.33;;
14400;SDS011;7285;50.894;5.462;2023-08-20T07:19:27;0.80;;;0.80;;
14400;SDS011;7285;50.894;5.462;2023-08-20T07:21:54;0.87;;;0.87;;
14400;SDS011;7285;50.894;5.462;2023-08-20T07:24:21;0.90;;;0.90;;
14400;SDS011;7285;50.894;5.462;2023-08-20T07:26:50;1.30;;;1.20;;
14400;SDS011;7285;50.894;5.462;2023-08-20T07:29:20;0.93;;;0.93;;
14400;SDS011;7285;50.894;5.462;2023-08-20T07:31:50;1.10;;;1.00;;
14400;SDS011;7285;50.894;5.462;2023-08-20T07:34:18;0.73;;;0.73;;
14400;SDS011;7285;50.894;5.462;2023-08-20T07:36:45;0.70;;;0.70;;
14400;SDS011;7285;50.894;5.462;2023-08-20T07:39:12;0.80;;;0.80;;
14400;SDS011;7285;50.894;5.462;2023-08-20T07:41:40;1.63;;;1.33;;
14400;SDS011;7285;50.894;5.462;2023-08-20T07:44:07;1.10;;;0.90;;
14400;SDS011;7285;50.894;5.462;2023-08-20T07:46:33;0.80;;;0.80;;
14400;SDS011;7285;50.894;5.462;2023-08-20T07:49:02;0.60;;;0.60;;
14400;SDS011;7285;50.894;5.462;2023-08-20T07:51:29;0.87;;;0.83;;
14400;SDS011;7285;50.894;5.462;2023-08-20T07:53:56;0.67;;;0.67;;
14400;SDS011;7285;50.894;5.462;2023-08-20T07:56:24;1.40;;;1.03;;
14400;SDS011;7285;50.894;5.462;2023-08-20T07:58:51;1.97;;;0.90;;
14400;SDS011;7285;50.894;5.462;2023-08-20T08:01:18;1.10;;;1.00;;
14400;SDS011;7285;50.894;5.462;2023-08-20T08:03:45;0.80;;;0.70;;
14400;SDS011;7285;50.894;5.462;2023-08-20T08:06:13;1.13;;;1.00;;
14400;SDS011;7285;50.894;5.462;2023-08-20T08:08:42;0.57;;;0.57;;
14400;SDS011;7285;50.894;5.462;2023-08-20T08:11:10;6.87;;;0.40;;
14400;SDS011;7285;50.894;5.462;2023-08-20T08:13:37;0.77;;;0.77;;
14400;SDS011;7285;50.894;5.462;2023-08-20T08:16:04;0.70;;;0.70;;
14400;SDS011;7285;50.894;5.462;2023-08-20T08:18:31;0.50;;;0.50;;
14400;SDS011;7285;50.894;5.462;2023-08-20T08:20:58;0.60;;;0.60;;
14400;SDS011;7285;50.894;5.462;2023-08-20T08:23:26;0.63;;;0.63;;
14400;SDS011;7285;50.894;5.462;2023-08-20T08:25:53;0.52;;;0.52;;
14400;SDS011;7285;50.894;5.462;2023-08-20T08:28:20;2.17;;;0.80;;
14400;SDS011;7285;50.894;5.462;2023-08-20T08:30:47;0.50;;;0.50;;
14400;SDS011;7285;50.894;5.462;2023-08-20T08:33:14;0.60;;;0.60;;
14400;SDS011;7285;50.894;5.462;2023-08-20T08:35:41;0.50;;;0.50;;
14400;SDS011;7285;50.894;5.462;2023-08-20T08:38:08;0.70;;;0.70;;
14400;SDS011;7285;50.894;5.462;2023-08-20T08:40:36;0.43;;;0.43;;
14400;SDS011;7285;50.894;5.462;2023-08-20T08:43:04;1.17;;;0.50;;
14400;SDS011;7285;50.894;5.462;2023-08-20T08:45:32;1.10;;;1.00;;
14400;SDS011;7285;50.894;5.462;2023-08-20T08:47:59;0.80;;;0.65;;
14400;SDS011;7285;50.894;5.462;2023-08-20T08:50:28;1.13;;;1.02;;
14400;SDS011;7285;50.894;5.462;2023-08-20T08:52:56;0.60;;;0.52;;
14400;SDS011;7285;50.894;5.462;2023-08-20T08:55:24;0.98;;;0.77;;
14400;SDS011;7285;50.894;5.462;2023-08-20T08:57:53;1.55;;;0.82;;
14400;SDS011;7285;50.894;5.462;2023-08-20T09:00:20;1.05;;;0.70;;
14400;SDS011;7285;50.894;5.462;2023-08-20T09:02:47;3.63;;;1.38;;
14400;SDS011;7285;50.894;5.462;2023-08-20T09:05:14;0.73;;;0.73;;
14400;SDS011;7285;50.894;5.462;2023-08-20T09:07:42;0.95;;;0.93;;
14400;SDS011;7285;50.894;5.462;2023-08-20T09:10:10;0.43;;;0.43;;
14400;SDS011;7285;50.894;5.462;2023-08-20T09:12:37;0.90;;;0.88;;
14400;SDS011;7285;50.894;5.462;2023-08-20T09:15:09;1.40;;;0.85;;
14400;SDS011;7285;50.894;5.462;2023-08-20T09:17:36;1.17;;;1.08;;
14400;SDS011;7285;50.894;5.462;2023-08-20T09:20:04;1.48;;;1.38;;
14400;SDS011;7285;50.894;5.462;2023-08-20T09:22:31;3.63;;;0.80;;
14400;SDS011;7285;50.894;5.462;2023-08-20T09:24:58;0.73;;;0.68;;
14400;SDS011;7285;50.894;5.462;2023-08-20T09:27:25;1.38;;;1.27;;
14400;SDS011;7285;50.894;5.462;2023-08-20T09:29:53;0.80;;;0.80;;
14400;SDS011;7285;50.894;5.462;2023-08-20T09:32:24;0.93;;;0.80;;
14400;SDS011;7285;50.894;5.462;2023-08-20T09:34:52;0.70;;;0.70;;
14400;SDS011;7285;50.894;5.462;2023-08-20T09:37:20;0.70;;;0.70;;
14400;SDS011;7285;50.894;5.462;2023-08-20T09:39:49;0.40;;;0.40;;
14400;SDS011;7285;50.894;5.462;2023-08-20T09:42:17;0.68;;;0.60;;
14400;SDS011;7285;50.894;5.462;2023-08-20T09:44:44;0.70;;;0.70;;
14400;SDS011;7285;50.894;5.462;2023-08-20T09:47:14;0.43;;;0.43;;
14400;SDS011;7285;50.894;5.462;2023-08-20T09:49:44;0.60;;;0.60;;
14400;SDS011;7285;50.894;5.462;2023-08-20T09:52:12;0.82;;;0.60;;
14400;SDS011;7285;50.894;5.462;2023-08-20T09:54:48;1.45;;;0.57;;
14400;SDS011;7285;50.894;5.462;2023-08-20T09:57:23;2.40;;;0.75;;
14400;SDS011;7285;50.894;5.462;2023-08-20T09:59:57;0.75;;;0.47;;
14400;SDS011;7285;50.894;5.462;2023-08-20T10:02:25;0.55;;;0.50;;
14400;SDS011;7285;50.894;5.462;2023-08-20T10:04:53;0.45;;;0.45;;
14400;SDS011;7285;50.894;5.462;2023-08-20T10:07:20;3.58;;;0.80;;
14400;SDS011;7285;50.894;5.462;2023-08-20T10:09:50;0.80;;;0.32;;
14400;SDS011;7285;50.894;5.462;2023-08-20T10:12:18;0.47;;;0.47;;
14400;SDS011;7285;50.894;5.462;2023-08-20T10:14:46;0.95;;;0.95;;
14400;SDS011;7285;50.894;5.462;2023-08-20T10:17:13;0.65;;;0.65;;
14400;SDS011;7285;50.894;5.462;2023-08-20T10:19:41;0.52;;;0.47;;
14400;SDS011;7285;50.894;5.462;2023-08-20T10:22:09;0.60;;;0.60;;
14400;SDS011;7285;50.894;5.462;2023-08-20T10:24:40;1.08;;;0.65;;
14400;SDS011;7285;50.894;5.462;2023-08-20T10:27:13;0.50;;;0.50;;
14400;SDS011;7285;50.894;5.462;2023-08-20T10:29:50;0.52;;;0.52;;
14400;SDS011;7285;50.894;5.462;2023-08-20T10:32:19;0.95;;;0.40;;
14400;SDS011;7285;50.894;5.462;2023-08-20T10:34:49;1.08;;;0.98;;
14400;SDS011;7285;50.894;5.462;2023-08-20T10:37:27;0.30;;;0.30;;
14400;SDS011;7285;50.894;5.462;2023-08-20T10:39:54;0.52;;;0.43;;
14400;SDS011;7285;50.894;5.462;2023-08-20T10:42:25;0.40;;;0.20;;
14400;SDS011;7285;50.894;5.462;2023-08-20T10:45:01;0.30;;;0.30;;
14400;SDS011;7285;50.894;5.462;2023-08-20T10:47:37;0.50;;;0.50;;
14400;SDS011;7285;50.894;5.462;2023-08-20T10:50:11;0.60;;;0.57;;
14400;SDS011;7285;50.894;5.462;2023-08-20T10:52:48;0.38;;;0.38;;
14400;SDS011;7285;50.894;5.462;2023-08-20T10:55:17;0.63;;;0.63;;
14400;SDS011;7285;50.894;5.462;2023-08-20T10:57:54;0.60;;;0.40;;
14400;SDS011;7285;50.894;5.462;2023-08-20T11:00:21;0.40;;;0.20;;
14400;SDS011;7285;50.894;5.462;2023-08-20T11:02:49;0.60;;;0.60;;
14400;SDS011;7285;50.894;5.462;2023-08-20T11:05:16;0.45;;;0.32;;
14400;SDS011;7285;50.894;5.462;2023-08-20T11:07:45;1.88;;;0.43;;
14400;SDS011;7285;50.894;5.462;2023-08-20T11:10:14;0.52;;;0.30;;
14400;SDS011;7285;50.894;5.462;2023-08-20T11:12:42;0.10;;;0.10;;
14400;SDS011;7285;50.894;5.462;2023-08-20T11:15:09;0.45;;;0.30;;
14400;SDS011;7285;50.894;5.462;2023-08-20T11:17:41;0.95;;;0.40;;
14400;SDS011;7285;50.894;5.462;2023-08-20T11:20:09;0.40;;;0.40;;
14400;SDS011;7285;50.894;5.462;2023-08-20T11:22:38;0.20;;;0.20;;
14400;SDS011;7285;50.894;5.462;2023-08-20T11:25:06;0.30;;;0.30;;
14400;SDS011;7285;50.894;5.462;2023-08-20T11:27:41;0.57;;;0.30;;
14400;SDS011;7285;50.894;5.462;2023-08-20T11:30:08;0.47;;;0.20;;
14400;SDS011;7285;50.894;5.462;2023-08-20T11:32:38;0.35;;;0.30;;
14400;SDS011;7285;50.894;5.462;2023-08-20T11:35:05;0.40;;;0.32;;
14400;SDS011;7285;50.894;5.462;2023-08-20T11:37:33;0.47;;;0.30;;
14400;SDS011;7285;50.894;5.462;2023-08-20T11:40:00;0.75;;;0.30;;
14400;SDS011;7285;50.894;5.462;2023-08-20T11:42:27;0.30;;;0.30;;
14400;SDS011;7285;50.894;5.462;2023-08-20T11:44:56;0.40;;;0.40;;
14400;SDS011;7285;50.894;5.462;2023-08-20T11:47:23;0.30;;;0.30;;
14400;SDS011;7285;50.894;5.462;2023-08-20T11:50:01;0.30;;;0.30;;
14400;SDS011;7285;50.894;5.462;2023-08-20T11:52:30;0.47;;;0.17;;
14400;SDS011;7285;50.894;5.462;2023-08-20T11:54:58;0.45;;;0.17;;
14400;SDS011;7285;50.894;5.462;2023-08-20T11:57:25;0.20;;;0.20;;
14400;SDS011;7285;50.894;5.462;2023-08-20T11:59:52;0.20;;;0.20;;
14400;SDS011;7285;50.894;5.462;2023-08-20T12:02:25;0.85;;;0.28;;
14400;SDS011;7285;50.894;5.462;2023-08-20T12:04:55;0.52;;;0.13;;
14400;SDS011;7285;50.894;5.462;2023-08-20T12:07:24;0.38;;;0.38;;
14400;SDS011;7285;50.894;5.462;2023-08-20T12:09:52;3.47;;;0.30;;
14400;SDS011;7285;50.894;5.462;2023-08-20T12:12:20;0.40;;;0.40;;
14400;SDS011;7285;50.894;5.462;2023-08-20T12:14:47;0.20;;;0.20;;
14400;SDS011;7285;50.894;5.462;2023-08-20T12:17:16;0.13;;;0.13;;
14400;SDS011;7285;50.894;5.462;2023-08-20T12:19:44;0.15;;;0.15;;
14400;SDS011;7285;50.894;5.462;2023-08-20T12:22:11;0.60;;;0.38;;
14400;SDS011;7285;50.894;5.462;2023-08-20T12:24:38;0.30;;;0.30;;
14400;SDS011;7285;50.894;5.462;2023-08-20T12:27:05;0.20;;;0.20;;
14400;SDS011;7285;50.894;5.462;2023-08-20T12:29:32;0.40;;;0.40;;
14400;SDS011;7285;50.894;5.462;2023-08-20T12:32:00;0.40;;;0.35;;
14400;SDS011;7285;50.894;5.462;2023-08-20T12:34:30;0.10;;;0.10;;
14400;SDS011;7285;50.894;5.462;2023-08-20T12:36:58;0.10;;;0.10;;
14400;SDS011;7285;50.894;5.462;2023-08-20T12:39:25;0.17;;;0.10;;
14400;SDS011;7285;50.894;5.462;2023-08-20T12:41:52;0.80;;;0.20;;
14400;SDS011;7285;50.894;5.462;2023-08-20T12:44:19;0.10;;;0.10;;
14400;SDS011;7285;50.894;5.462;2023-08-20T12:46:46;0.80;;;0.60;;
14400;SDS011;7285;50.894;5.462;2023-08-20T12:49:13;1.35;;;0.08;;
14400;SDS011;7285;50.894;5.462;2023-08-20T12:51:40;0.47;;;0.10;;
14400;SDS011;7285;50.894;5.462;2023-08-20T12:54:08;0.45;;;0.10;;
14400;SDS011;7285;50.894;5.462;2023-08-20T12:56:35;0.75;;;0.20;;
14400;SDS011;7285;50.894;5.462;2023-08-20T12:59:02;0.13;;;0.13;;
14400;SDS011;7285;50.894;5.462;2023-08-20T13:01:29;0.00;;;0.00;;
14400;SDS011;7285;50.894;5.462;2023-08-20T13:03:56;0.10;;;0.10;;
14400;SDS011;7285;50.894;5.462;2023-08-20T13:06:24;0.10;;;0.10;;
14400;SDS011;7285;50.894;5.462;2023-08-20T13:08:51;0.43;;;0.25;;
14400;SDS011;7285;50.894;5.462;2023-08-20T13:11:20;0.15;;;0.08;;
14400;SDS011;7285;50.894;5.462;2023-08-20T13:13:48;0.32;;;0.10;;
14400;SDS011;7285;50.894;5.462;2023-08-20T13:16:15;0.10;;;0.10;;
14400;SDS011;7285;50.894;5.462;2023-08-20T13:18:44;0.10;;;0.10;;
14400;SDS011;7285;50.894;5.462;2023-08-20T13:21:11;0.10;;;0.10;;
14400;SDS011;7285;50.894;5.462;2023-08-20T13:23:39;1.15;;;0.13;;
14400;SDS011;7285;50.894;5.462;2023-08-20T13:26:06;0.08;;;0.05;;
14400;SDS011;7285;50.894;5.462;2023-08-20T13:28:34;0.45;;;0.20;;
14400;SDS011;7285;50.894;5.462;2023-08-20T13:31:01;0.10;;;0.10;;
14400;SDS011;7285;50.894;5.462;2023-08-20T13:33:28;0.10;;;0.10;;
14400;SDS011;7285;50.894;5.462;2023-08-20T13:35:55;0.08;;;0.08;;
14400;SDS011;7285;50.894;5.462;2023-08-20T13:38:22;0.00;;;0.00;;
14400;SDS011;7285;50.894;5.462;2023-08-20T13:40:50;0.10;;;0.10;;
14400;SDS011;7285;50.894;5.462;2023-08-20T13:43:17;0.08;;;0.08;;
14400;SDS011;7285;50.894;5.462;2023-08-20T13:45:45;0.00;;;0.00;;
14400;SDS011;7285;50.894;5.462;2023-08-20T13:48:12;0.00;;;0.00;;
14400;SDS011;7285;50.894;5.462;2023-08-20T13:50:39;0.00;;;0.00;;
14400;SDS011;7285;50.894;5.462;2023-08-20T13:53:06;0.17;;;0.17;;
14400;SDS011;7285;50.894;5.462;2023-08-20T13:55:33;0.70;;;0.70;;
14400;SDS011;7285;50.894;5.462;2023-08-20T13:58:00;0.00;;;0.00;;
14400;SDS011;7285;50.894;5.462;2023-08-20T14:00:27;0.30;;;0.30;;
14400;SDS011;7285;50.894;5.462;2023-08-20T14:02:55;0.10;;;0.10;;
14400;SDS011;7285;50.894;5.462;2023-08-20T14:05:23;0.20;;;0.10;;
14400;SDS011;7285;50.894;5.462;2023-08-20T14:07:50;0.35;;;0.10;;
14400;SDS011;7285;50.894;5.462;2023-08-20T14:10:17;2.17;;;0.08;;
14400;SDS011;7285;50.894;5.462;2023-08-20T14:12:44;0.32;;;0.10;;
14400;SDS011;7285;50.894;5.462;2023-08-20T14:15:11;0.10;;;0.10;;
14400;SDS011;7285;50.894;5.462;2023-08-20T14:17:38;0.10;;;0.10;;
14400;SDS011;7285;50.894;5.462;2023-08-20T14:20:07;0.15;;;0.15;;
14400;SDS011;7285;50.894;5.462;2023-08-20T14:22:36;0.10;;;0.10;;
14400;SDS011;7285;50.894;5.462;2023-08-20T14:25:03;0.00;;;0.00;;
14400;SDS011;7285;50.894;5.462;2023-08-20T14:27:30;0.05;;;0.05;;
14400;SDS011;7285;50.894;5.462;2023-08-20T14:29:57;0.50;;;0.30;;
14400;SDS011;7285;50.894;5.462;2023-08-20T14:32:24;0.20;;;0.20;;
14400;SDS011;7285;50.894;5.462;2023-08-20T14:34:51;0.10;;;0.10;;
14400;SDS011;7285;50.894;5.462;2023-08-20T14:37:19;0.10;;;0.10;;
14400;SDS011;7285;50.894;5.462;2023-08-20T14:39:48;0.10;;;0.10;;
14400;SDS011;7285;50.894;5.462;2023-08-20T14:42:15;0.95;;;0.20;;
14400;SDS011;7285;50.894;5.462;2023-08-20T14:44:42;0.10;;;0.10;;
14400;SDS011;7285;50.894;5.462;2023-08-20T14:47:09;0.55;;;0.50;;
14400;SDS011;7285;50.894;5.462;2023-08-20T14:49:37;0.15;;;0.15;;
14400;SDS011;7285;50.894;5.462;2023-08-20T14:52:04;0.10;;;0.10;;
14400;SDS011;7285;50.894;5.462;2023-08-20T14:54:33;0.90;;;0.40;;
14400;SDS011;7285;50.894;5.462;2023-08-20T14:56:59;0.03;;;0.03;;
14400;SDS011;7285;50.894;5.462;2023-08-20T14:59:27;0.10;;;0.10;;
14400;SDS011;7285;50.894;5.462;2023-08-20T15:01:54;0.00;;;0.00;;
14400;SDS011;7285;50.894;5.462;2023-08-20T15:04:21;0.10;;;0.10;;
14400;SDS011;7285;50.894;5.462;2023-08-20T15:06:48;0.47;;;0.08;;
14400;SDS011;7285;50.894;5.462;2023-08-20T15:09:15;0.32;;;0.32;;